sensor_id;sensor_type;location;lat;lon;timestamp;P1;durP1;ratioP1;P2;durP2;ratioP2
50086;SDS011;35967;50.718;7.050;2022-12-07T00:08:20;47.20;;;21.87;;
50086;SDS011;35967;50.718;7.050;2022-12-07T00:18:24;45.77;;;21.80;;
50086;SDS011;35967;50.718;7.050;2022-12-07T00:28:28;50.83;;;20.43;;
50086;SDS011;35967;50.718;7.050;2022-12-07T00:38:31;47.20;;;22.63;;
50086;SDS011;35967;50.718;7.050;2022-12-07T00:48:37;50.10;;;25.67;;
50086;SDS011;35967;50.718;7.050;2022-12-07T00:58:40;42.23;;;22.80;;
50086;SDS011;35967;50.718;7.050;2022-12-07T01:08:44;48.33;;;24.07;;
50086;SDS011;35967;50.718;7.050;2022-12-07T01:18:48;40.00;;;21.73;;
50086;SDS011;35967;50.718;7.050;2022-12-07T01:28:53;44.83;;;25.20;;
50086;SDS011;35967;50.718;7.050;2022-12-07T01:38:59;45.20;;;23.10;;
50086;SDS011;35967;50.718;7.050;2022-12-07T01:49:05;45.03;;;24.63;;
50086;SDS011;35967;50.718;7.050;2022-12-07T01:59:11;50.83;;;25.67;;
50086;SDS011;35967;50.718;7.050;2022-12-07T02:09:15;51.33;;;26.97;;
50086;SDS011;35967;50.718;7.050;2022-12-07T02:19:24;51.23;;;26.90;;
50086;SDS011;35967;50.718;7.050;2022-12-07T02:30:02;47.10;;;25.97;;
50086;SDS011;35967;50.718;7.050;2022-12-07T02:40:09;55.77;;;29.40;;
50086;SDS011;35967;50.718;7.050;2022-12-07T02:50:21;57.40;;;27.70;;
50086;SDS011;35967;50.718;7.050;2022-12-07T03:00:24;52.13;;;26.63;;
50086;SDS011;35967;50.718;7.050;2022-12-07T03:10:32;58.53;;;29.63;;
50086;SDS011;35967;50.718;7.050;2022-12-07T03:20:42;51.20;;;26.43;;
50086;SDS011;35967;50.718;7.050;2022-12-07T03:30:51;54.73;;;25.60;;
50086;SDS011;35967;50.718;7.050;2022-12-07T03:41:00;43.50;;;23.87;;
50086;SDS011;35967;50.718;7.050;2022-12-07T04:01:19;45.03;;;23.23;;
50086;SDS011;35967;50.718;7.050;2022-12-07T04:11:23;49.83;;;25.00;;
50086;SDS011;35967;50.718;7.050;2022-12-07T04:21:26;51.40;;;23.80;;
50086;SDS011;35967;50.718;7.050;2022-12-07T04:31:30;47.73;;;23.43;;
50086;SDS011;35967;50.718;7.050;2022-12-07T04:41:34;51.93;;;25.23;;
50086;SDS011;35967;50.718;7.050;2022-12-07T04:51:38;53.63;;;25.63;;
50086;SDS011;35967;50.718;7.050;2022-12-07T05:01:42;47.53;;;22.63;;
50086;SDS011;35967;50.718;7.050;2022-12-07T05:11:46;51.10;;;23.87;;
50086;SDS011;35967;50.718;7.050;2022-12-07T05:21:49;50.50;;;24.93;;
50086;SDS011;35967;50.718;7.050;2022-12-07T05:31:54;48.80;;;23.30;;
50086;SDS011;35967;50.718;7.050;2022-12-07T05:41:56;51.13;;;23.20;;
50086;SDS011;35967;50.718;7.050;2022-12-07T05:52:16;43.07;;;19.90;;
50086;SDS011;35967;50.718;7.050;2022-12-07T06:02:19;45.27;;;19.80;;
50086;SDS011;35967;50.718;7.050;2022-12-07T06:12:24;48.10;;;20.77;;
50086;SDS011;35967;50.718;7.050;2022-12-07T06:46:56;45.53;;;19.77;;
50086;SDS011;35967;50.718;7.050;2022-12-07T06:57:19;40.00;;;19.73;;
50086;SDS011;35967;50.718;7.050;2022-12-07T07:07:23;42.00;;;17.97;;
50086;SDS011;35967;50.718;7.050;2022-12-07T07:17:26;38.40;;;18.97;;
50086;SDS011;35967;50.718;7.050;2022-12-07T07:27:31;43.33;;;21.30;;
50086;SDS011;35967;50.718;7.050;2022-12-07T07:37:34;35.30;;;16.60;;
50086;SDS011;35967;50.718;7.050;2022-12-07T07:47:38;39.80;;;17.53;;
50086;SDS011;35967;50.718;7.050;2022-12-07T07:57:41;43.13;;;18.53;;
50086;SDS011;35967;50.718;7.050;2022-12-07T08:07:53;43.30;;;18.33;;
50086;SDS011;35967;50.718;7.050;2022-12-07T08:17:56;48.60;;;21.20;;
50086;SDS011;35967;50.718;7.050;2022-12-07T08:28:02;51.10;;;22.77;;
50086;SDS011;35967;50.718;7.050;2022-12-07T08:38:05;42.13;;;20.40;;
50086;SDS011;35967;50.718;7.050;2022-12-07T08:48:10;46.60;;;20.90;;
50086;SDS011;35967;50.718;7.050;2022-12-07T08:58:15;49.60;;;20.93;;
50086;SDS011;35967;50.718;7.050;2022-12-07T09:08:20;43.20;;;18.27;;
50086;SDS011;35967;50.718;7.050;2022-12-07T09:18:24;38.27;;;17.40;;
50086;SDS011;35967;50.718;7.050;2022-12-07T09:28:29;39.07;;;18.63;;
50086;SDS011;35967;50.718;7.050;2022-12-07T09:38:33;40.77;;;18.77;;
50086;SDS011;35967;50.718;7.050;2022-12-07T09:48:38;37.87;;;18.13;;
50086;SDS011;35967;50.718;7.050;2022-12-07T09:58:42;40.73;;;19.17;;
50086;SDS011;35967;50.718;7.050;2022-12-07T10:08:47;38.07;;;16.87;;
50086;SDS011;35967;50.718;7.050;2022-12-07T10:18:51;22.33;;;13.20;;
50086;SDS011;35967;50.718;7.050;2022-12-07T10:28:56;19.43;;;11.60;;
50086;SDS011;35967;50.718;7.050;2022-12-07T10:39:03;28.57;;;13.33;;
50086;SDS011;35967;50.718;7.050;2022-12-07T10:49:23;20.37;;;8.80;;
50086;SDS011;35967;50.718;7.050;2022-12-07T10:59:41;18.07;;;8.37;;
50086;SDS011;35967;50.718;7.050;2022-12-07T11:10:00;19.37;;;7.23;;
50086;SDS011;35967;50.718;7.050;2022-12-07T11:20:13;15.97;;;5.03;;
50086;SDS011;35967;50.718;7.050;2022-12-07T11:30:27;13.40;;;4.30;;
50086;SDS011;35967;50.718;7.050;2022-12-07T11:40:36;11.63;;;4.20;;
50086;SDS011;35967;50.718;7.050;2022-12-07T11:50:44;14.13;;;4.53;;
50086;SDS011;35967;50.718;7.050;2022-12-07T12:00:51;11.90;;;3.87;;
50086;SDS011;35967;50.718;7.050;2022-12-07T12:11:16;9.97;;;3.93;;
50086;SDS011;35967;50.718;7.050;2022-12-07T12:21:29;15.47;;;5.67;;
50086;SDS011;35967;50.718;7.050;2022-12-07T12:31:37;17.93;;;4.87;;
50086;SDS011;35967;50.718;7.050;2022-12-07T12:41:52;14.83;;;5.17;;
50086;SDS011;35967;50.718;7.050;2022-12-07T13:02:55;14.90;;;4.83;;
50086;SDS011;35967;50.718;7.050;2022-12-07T13:13:02;13.83;;;5.20;;
50086;SDS011;35967;50.718;7.050;2022-12-07T13:23:09;18.40;;;6.20;;
50086;SDS011;35967;50.718;7.050;2022-12-07T13:33:12;16.30;;;5.97;;
50086;SDS011;35967;50.718;7.050;2022-12-07T13:43:20;15.47;;;5.10;;
50086;SDS011;35967;50.718;7.050;2022-12-07T13:53:23;13.23;;;5.30;;
50086;SDS011;35967;50.718;7.050;2022-12-07T14:03:32;17.20;;;4.37;;
50086;SDS011;35967;50.718;7.050;2022-12-07T14:13:38;14.73;;;4.73;;
50086;SDS011;35967;50.718;7.050;2022-12-07T14:23:44;10.23;;;3.30;;
50086;SDS011;35967;50.718;7.050;2022-12-07T14:33:48;11.10;;;4.13;;
50086;SDS011;35967;50.718;7.050;2022-12-07T14:43:52;12.90;;;4.50;;
50086;SDS011;35967;50.718;7.050;2022-12-07T14:54:16;22.43;;;6.13;;
50086;SDS011;35967;50.718;7.050;2022-12-07T15:04:22;21.40;;;6.77;;
50086;SDS011;35967;50.718;7.050;2022-12-07T15:14:25;13.97;;;5.80;;
50086;SDS011;35967;50.718;7.050;2022-12-07T15:24:30;15.70;;;6.07;;
50086;SDS011;35967;50.718;7.050;2022-12-07T15:34:33;18.67;;;6.23;;
50086;SDS011;35967;50.718;7.050;2022-12-07T15:44:42;18.43;;;6.00;;
50086;SDS011;35967;50.718;7.050;2022-12-07T15:55:03;18.30;;;6.20;;
50086;SDS011;35967;50.718;7.050;2022-12-07T16:05:09;19.90;;;6.93;;
50086;SDS011;35967;50.718;7.050;2022-12-07T16:15:12;21.53;;;7.43;;
50086;SDS011;35967;50.718;7.050;2022-12-07T16:25:24;17.43;;;7.90;;
50086;SDS011;35967;50.718;7.050;2022-12-07T16:35:28;22.80;;;7.67;;
50086;SDS011;35967;50.718;7.050;2022-12-07T16:45:32;13.87;;;5.83;;
50086;SDS011;35967;50.718;7.050;2022-12-07T16:55:36;16.83;;;7.40;;
50086;SDS011;35967;50.718;7.050;2022-12-07T17:05:41;17.53;;;7.67;;
50086;SDS011;35967;50.718;7.050;2022-12-07T17:15:53;17.53;;;8.33;;
50086;SDS011;35967;50.718;7.050;2022-12-07T17:26:04;66.53;;;24.57;;
50086;SDS011;35967;50.718;7.050;2022-12-07T17:36:09;28.23;;;12.17;;
50086;SDS011;35967;50.718;7.050;2022-12-07T17:46:14;19.03;;;8.73;;
50086;SDS011;35967;50.718;7.050;2022-12-07T17:56:17;18.93;;;9.37;;
50086;SDS011;35967;50.718;7.050;2022-12-07T18:06:31;25.30;;;10.63;;
50086;SDS011;35967;50.718;7.050;2022-12-07T18:16:35;20.30;;;10.07;;
50086;SDS011;35967;50.718;7.050;2022-12-07T18:26:40;15.73;;;8.53;;
50086;SDS011;35967;50.718;7.050;2022-12-07T18:36:45;16.37;;;8.93;;
50086;SDS011;35967;50.718;7.050;2022-12-07T18:46:51;19.17;;;9.53;;
50086;SDS011;35967;50.718;7.050;2022-12-07T18:56:54;15.57;;;9.80;;
50086;SDS011;35967;50.718;7.050;2022-12-07T19:06:59;18.10;;;9.37;;
50086;SDS011;35967;50.718;7.050;2022-12-07T19:17:03;19.53;;;8.67;;
50086;SDS011;35967;50.718;7.050;2022-12-07T19:27:09;13.83;;;7.83;;
50086;SDS011;35967;50.718;7.050;2022-12-07T19:37:12;15.40;;;8.90;;
50086;SDS011;35967;50.718;7.050;2022-12-07T19:47:17;14.20;;;7.80;;
50086;SDS011;35967;50.718;7.050;2022-12-07T19:57:20;16.80;;;8.87;;
50086;SDS011;35967;50.718;7.050;2022-12-07T20:07:25;17.97;;;9.43;;
50086;SDS011;35967;50.718;7.050;2022-12-07T20:17:28;16.67;;;9.33;;
50086;SDS011;35967;50.718;7.050;2022-12-07T20:27:32;13.30;;;8.63;;
50086;SDS011;35967;50.718;7.050;2022-12-07T20:37:35;15.77;;;9.33;;
50086;SDS011;35967;50.718;7.050;2022-12-07T20:47:39;17.93;;;9.00;;
50086;SDS011;35967;50.718;7.050;2022-12-07T20:57:43;18.80;;;11.90;;
50086;SDS011;35967;50.718;7.050;2022-12-07T21:07:48;18.07;;;9.57;;
50086;SDS011;35967;50.718;7.050;2022-12-07T21:17:51;21.00;;;9.30;;
50086;SDS011;35967;50.718;7.050;2022-12-07T21:27:56;20.40;;;9.40;;
50086;SDS011;35967;50.718;7.050;2022-12-07T21:37:59;14.37;;;9.10;;
50086;SDS011;35967;50.718;7.050;2022-12-07T21:48:04;14.60;;;9.53;;
50086;SDS011;35967;50.718;7.050;2022-12-07T21:58:07;17.03;;;8.97;;
50086;SDS011;35967;50.718;7.050;2022-12-07T22:08:12;19.37;;;8.97;;
50086;SDS011;35967;50.718;7.050;2022-12-07T22:18:15;16.83;;;9.50;;
50086;SDS011;35967;50.718;7.050;2022-12-07T22:28:20;15.07;;;8.57;;
50086;SDS011;35967;50.718;7.050;2022-12-07T22:38:23;15.87;;;8.00;;
50086;SDS011;35967;50.718;7.050;2022-12-07T22:48:29;16.80;;;7.93;;
50086;SDS011;35967;50.718;7.050;2022-12-07T22:58:32;13.23;;;7.70;;
50086;SDS011;35967;50.718;7.050;2022-12-07T23:08:56;15.43;;;8.17;;
50086;SDS011;35967;50.718;7.050;2022-12-07T23:19:00;16.73;;;8.60;;
50086;SDS011;35967;50.718;7.050;2022-12-07T23:29:04;15.70;;;8.10;;
50086;SDS011;35967;50.718;7.050;2022-12-07T23:39:07;18.60;;;9.03;;
50086;SDS011;35967;50.718;7.050;2022-12-07T23:49:12;16.83;;;7.33;;
50086;SDS011;35967;50.718;7.050;2022-12-07T23:59:15;14.03;;;8.00;;
